Silverado, California
Current Conditions -  °F | °C
As of 11:56 AM on Wednesday 26 Nov 2014 (Local Time) from KAJO Reporting Station
Clear Clear  
Wind Chill: 83°   Ceiling: Unl
Heat Index: 83°   Visibility: 10mi
Dew Point: 30°   Wind: 0mph
Humidity: 15%   Direction: NA
Pressure: 30.19"   Gusts: NA
Location:  33.75°N, 117.64°W
Report Text: KAJO 261956Z AUTO 00000KT 10SM CLR 28/M01 A3019 RMK AO2 T02831011 SLP220 $
Loading
Personal Weather Stations






























Interactive Weather Map New forecast layout! Learn more

10-Day Weather Forecast

Advertisements
Track Severe Weather on mobile